Time;durP1;ratioP1;P1;durP2;ratioP2;P2;SDS_P1;SDS_P2;PMS_P1;PMS_P2;Temp;Humidity;BMP_temperature;BMP_pressure;BME280_temperature;BME280_humidity;BME280_pressure;Samples;Min_cycle;Max_cycle;Signal;HPM_P1;HPM_P2
2023/06/28 00:00:01;;;;;;;2.67;1.52;;;19.60;80.50;;;;;;2074788;28;20449;-71
2023/06/28 00:01:01;;;;;;;3.03;1.27;;;19.50;80.60;;;;;;2077162;28;20490;-71
2023/06/28 00:02:02;;;;;;;2.42;1.05;;;19.50;80.90;;;;;;2075424;28;20036;-71
2023/06/28 00:03:02;;;;;;;7.47;1.70;;;19.50;80.80;;;;;;2075776;28;20025;-71
2023/06/28 00:04:04;;;;;;;4.80;1.60;;;19.50;81.30;;;;;;2073671;28;20049;-71
2023/06/28 00:05:07;;;;;;;4.15;1.65;;;19.40;82.20;;;;;;2075621;28;20029;-71
2023/06/28 00:06:07;;;;;;;3.05;1.33;;;19.40;81.80;;;;;;2077439;28;20056;-71
2023/06/28 00:07:08;;;;;;;4.85;1.40;;;19.40;82.50;;;;;;2076767;28;20076;-71
2023/06/28 00:08:09;;;;;;;3.17;1.40;;;19.40;83.10;;;;;;2074483;28;20478;-71
2023/06/28 00:09:09;;;;;;;2.33;1.30;;;19.40;83.40;;;;;;2074534;28;20457;-71
2023/06/28 00:10:10;;;;;;;3.75;1.55;;;19.40;84.20;;;;;;2073798;28;20034;-71
2023/06/28 00:11:11;;;;;;;2.75;1.45;;;19.30;83.90;;;;;;2078603;28;20029;-71
2023/06/28 00:12:11;;;;;;;3.22;1.30;;;19.30;84.70;;;;;;2078696;28;20120;-71
2023/06/28 00:13:12;;;;;;;2.78;1.70;;;19.30;84.10;;;;;;2077925;28;20056;-71
2023/06/28 00:14:12;;;;;;;2.75;1.30;;;19.30;85.00;;;;;;2079053;28;20096;-71
2023/06/28 00:15:13;;;;;;;6.43;1.70;;;19.30;84.70;;;;;;2079257;28;20398;-71
2023/06/28 00:16:14;;;;;;;4.05;1.42;;;19.30;84.70;;;;;;2074738;28;20056;-71
2023/06/28 00:17:15;;;;;;;3.97;1.40;;;19.20;85.10;;;;;;2075152;28;20116;-71
2023/06/28 00:18:16;;;;;;;3.85;1.48;;;19.20;86.00;;;;;;2076448;28;20355;-71
2023/06/28 00:19:26;;;;;;;3.47;1.00;;;19.20;85.40;;;;;;2075880;28;20087;-71
2023/06/28 00:20:27;;;;;;;4.05;1.40;;;19.20;85.60;;;;;;2076007;28;20061;-71
2023/06/28 00:21:28;;;;;;;4.53;2.00;;;19.20;86.60;;;;;;2075460;28;20029;-71
2023/06/28 00:22:31;;;;;;;3.75;2.10;;;19.20;87.60;;;;;;2076126;28;20109;-71
2023/06/28 00:23:32;;;;;;;3.72;1.90;;;19.20;88.80;;;;;;2074690;28;20552;-71
2023/06/28 00:24:33;;;;;;;3.05;1.67;;;19.10;89.40;;;;;;2074370;28;20033;-71
2023/06/28 00:25:33;;;;;;;5.47;1.70;;;19.10;88.80;;;;;;2076844;28;20030;-71
2023/06/28 00:26:34;;;;;;;4.45;1.50;;;19.10;89.60;;;;;;2077870;28;20504;-71
2023/06/28 00:27:34;;;;;;;5.25;1.60;;;19.10;90.20;;;;;;2077422;28;20465;-71
2023/06/28 00:28:35;;;;;;;2.45;1.48;;;19.00;89.50;;;;;;2077775;28;20386;-71
2023/06/28 00:29:35;;;;;;;2.50;1.55;;;19.10;90.70;;;;;;2076073;28;20554;-71
2023/06/28 00:30:37;;;;;;;2.58;1.30;;;19.10;90.50;;;;;;2075541;28;20493;-71
2023/06/28 00:31:37;;;;;;;3.22;1.58;;;19.00;90.50;;;;;;2075271;28;20048;-71
2023/06/28 00:32:38;;;;;;;2.63;1.30;;;19.10;90.40;;;;;;2076308;28;20032;-71
2023/06/28 00:33:38;;;;;;;4.65;1.65;;;19.00;89.40;;;;;;2075978;28;20021;-71
2023/06/28 00:34:39;;;;;;;5.35;1.40;;;19.00;90.30;;;;;;2075297;28;20030;-71
2023/06/28 00:35:39;;;;;;;2.67;1.48;;;19.00;90.30;;;;;;2076030;28;20052;-71
2023/06/28 00:36:40;;;;;;;5.43;1.48;;;19.00;90.60;;;;;;2077378;28;20022;-71
2023/06/28 00:37:41;;;;;;;3.60;1.67;;;19.00;91.40;;;;;;2075322;28;20095;-71
2023/06/28 00:38:42;;;;;;;2.92;1.17;;;19.00;91.90;;;;;;2077281;28;20107;-71
2023/06/28 00:39:43;;;;;;;2.65;1.30;;;19.00;92.30;;;;;;2078936;28;20022;-71
2023/06/28 00:40:43;;;;;;;3.75;1.63;;;18.90;92.70;;;;;;2073976;28;20026;-71
2023/06/28 00:41:44;;;;;;;3.45;1.80;;;18.90;92.50;;;;;;2073856;28;20022;-71
2023/06/28 00:42:44;;;;;;;5.97;1.48;;;18.90;92.90;;;;;;2076427;28;20022;-71
2023/06/28 00:43:45;;;;;;;2.40;1.73;;;18.90;93.00;;;;;;2076598;28;20052;-71
2023/06/28 00:44:45;;;;;;;3.92;1.63;;;18.90;93.00;;;;;;2075661;28;20068;-71
2023/06/28 00:45:46;;;;;;;3.78;1.48;;;18.90;93.10;;;;;;2076419;28;20021;-71
2023/06/28 00:46:48;;;;;;;5.80;2.10;;;18.90;93.30;;;;;;2076590;28;20101;-71
2023/06/28 00:47:49;;;;;;;3.08;1.25;;;18.80;93.50;;;;;;2076674;28;20033;-71
2023/06/28 00:48:50;;;;;;;4.47;1.33;;;18.90;93.10;;;;;;2077251;28;20021;-71
2023/06/28 00:49:53;;;;;;;2.03;1.38;;;18.80;93.10;;;;;;2074604;28;20494;-71
2023/06/28 00:50:54;;;;;;;2.15;1.35;;;18.80;93.40;;;;;;2076717;28;20018;-71
2023/06/28 00:51:55;;;;;;;2.97;1.38;;;18.80;93.60;;;;;;2075548;28;20493;-71
2023/06/28 00:52:55;;;;;;;4.30;1.70;;;18.80;93.80;;;;;;2076529;28;20104;-71
2023/06/28 00:53:57;;;;;;;5.85;1.58;;;18.80;94.60;;;;;;2075612;28;20042;-71
2023/06/28 00:54:59;;;;;;;3.08;1.50;;;18.80;95.00;;;;;;2076678;28;20029;-71
2023/06/28 00:56:00;;;;;;;3.22;1.70;;;18.70;95.40;;;;;;2075304;28;20057;-71
2023/06/28 00:57:01;;;;;;;2.58;1.40;;;18.70;95.30;;;;;;2076171;28;20030;-71
2023/06/28 00:58:02;;;;;;;3.72;1.70;;;18.70;95.50;;;;;;2073456;28;20186;-71
2023/06/28 00:59:03;;;;;;;3.85;1.50;;;18.70;96.20;;;;;;2075252;28;20022;-71
2023/06/28 01:00:08;;;;;;;3.05;1.33;;;18.70;95.80;;;;;;2073929;28;20060;-71
2023/06/28 01:01:10;;;;;;;2.95;1.60;;;18.70;96.30;;;;;;2075037;28;20033;-71
2023/06/28 01:02:11;;;;;;;2.78;1.15;;;18.60;96.70;;;;;;2074493;28;20101;-71
2023/06/28 01:03:11;;;;;;;3.17;1.48;;;18.60;96.80;;;;;;2077195;28;20034;-71
2023/06/28 01:04:13;;;;;;;2.75;1.50;;;18.60;97.10;;;;;;2077096;28;20021;-71
2023/06/28 01:05:15;;;;;;;4.30;1.83;;;18.60;96.80;;;;;;2075329;28;20596;-71
2023/06/28 01:06:17;;;;;;;4.60;1.33;;;18.60;97.00;;;;;;2076297;28;20030;-71
2023/06/28 01:07:18;;;;;;;3.65;1.30;;;18.50;97.20;;;;;;2074442;28;20022;-71
2023/06/28 01:08:19;;;;;;;3.20;1.27;;;18.50;97.20;;;;;;2076724;28;20022;-71
2023/06/28 01:09:22;;;;;;;3.08;1.35;;;18.50;97.00;;;;;;2075837;28;20029;-71
2023/06/28 01:10:23;;;;;;;1.83;1.10;;;18.50;96.20;;;;;;2077454;28;20013;-71
2023/06/28 01:11:24;;;;;;;4.75;1.80;;;18.50;95.50;;;;;;2077452;28;20033;-71
2023/06/28 01:12:25;;;;;;;3.97;1.40;;;18.50;95.50;;;;;;2075150;28;20017;-71
2023/06/28 01:13:26;;;;;;;3.03;1.52;;;18.50;96.00;;;;;;2073256;28;20022;-71
2023/06/28 01:14:27;;;;;;;2.65;1.38;;;18.50;97.10;;;;;;2075504;28;20025;-71
2023/06/28 01:15:28;;;;;;;2.60;1.50;;;18.50;98.10;;;;;;2074037;28;20627;-71
2023/06/28 01:16:29;;;;;;;2.25;1.40;;;18.40;98.10;;;;;;2077237;28;20476;-71
2023/06/28 01:17:30;;;;;;;3.35;1.45;;;18.40;98.60;;;;;;2075666;28;20033;-71
2023/06/28 01:18:33;;;;;;;2.72;1.52;;;18.40;98.40;;;;;;2075172;28;20056;-71
2023/06/28 01:19:36;;;;;;;2.78;1.52;;;18.40;98.20;;;;;;2075239;28;20102;-71
2023/06/28 01:20:37;;;;;;;3.42;1.50;;;18.40;98.20;;;;;;2077045;28;20060;-71
2023/06/28 01:21:42;;;;;;;5.38;2.15;;;18.40;98.90;;;;;;2075610;28;20025;-71
2023/06/28 01:22:52;;;;;;;3.28;1.30;;;18.40;99.80;;;;;;2075971;28;20053;-71
2023/06/28 01:23:53;;;;;;;4.35;1.85;;;18.40;99.90;;;;;;2075111;28;20477;-71
2023/06/28 01:24:56;;;;;;;4.00;1.63;;;18.40;99.90;;;;;;2076684;28;20409;-71
2023/06/28 01:26:02;;;;;;;4.35;1.52;;;18.40;99.90;;;;;;2072605;28;20018;-71
2023/06/28 01:27:04;;;;;;;4.22;1.23;;;18.40;99.90;;;;;;2074608;28;20101;-71
2023/06/28 01:28:04;;;;;;;3.63;1.65;;;18.30;99.90;;;;;;2073235;28;20048;-71
2023/06/28 01:29:06;;;;;;;4.68;2.00;;;18.30;99.90;;;;;;2076054;28;20033;-71
2023/06/28 01:30:08;;;;;;;3.20;1.48;;;18.30;99.90;;;;;;2073785;28;20022;-71
2023/06/28 01:31:10;;;;;;;3.58;1.88;;;18.30;99.90;;;;;;2075919;28;20021;-71
2023/06/28 01:32:11;;;;;;;2.22;1.60;;;18.30;99.90;;;;;;2073907;28;20030;-71
2023/06/28 01:33:11;;;;;;;3.92;1.27;;;18.30;99.90;;;;;;2075401;28;20049;-71
2023/06/28 01:34:12;;;;;;;2.25;1.50;;;18.30;99.90;;;;;;2075195;28;20048;-71
2023/06/28 01:35:14;;;;;;;4.78;1.55;;;18.20;99.90;;;;;;2075863;28;20018;-71
2023/06/28 01:36:15;;;;;;;3.90;2.03;;;18.30;99.90;;;;;;2075338;28;20045;-71
2023/06/28 01:37:17;;;;;;;7.70;1.80;;;18.30;99.90;;;;;;2075681;28;20036;-71
2023/06/28 01:38:19;;;;;;;4.60;1.58;;;18.20;99.90;;;;;;2074145;28;20149;-71
2023/06/28 01:39:21;;;;;;;5.63;1.88;;;18.20;99.90;;;;;;2074304;28;20525;-71
2023/06/28 01:40:21;;;;;;;3.83;1.77;;;18.20;99.90;;;;;;2073965;28;20413;-71
2023/06/28 01:41:23;;;;;;;4.40;1.40;;;18.20;99.90;;;;;;2076452;28;20037;-71
2023/06/28 01:42:24;;;;;;;3.67;1.50;;;18.20;99.90;;;;;;2076902;28;20029;-71
2023/06/28 01:43:25;;;;;;;3.22;1.67;;;18.20;99.90;;;;;;2076158;28;20054;-71
2023/06/28 01:44:25;;;;;;;4.22;1.45;;;18.20;99.90;;;;;;2074628;28;20025;-71
2023/06/28 01:45:26;;;;;;;4.93;1.50;;;18.10;99.90;;;;;;2076445;28;20137;-71
2023/06/28 01:46:27;;;;;;;2.38;1.48;;;18.10;99.90;;;;;;2076494;28;20065;-71
2023/06/28 01:47:28;;;;;;;4.10;1.60;;;18.10;99.90;;;;;;2074723;28;20021;-71
2023/06/28 01:48:28;;;;;;;4.75;1.75;;;18.10;99.90;;;;;;2077266;28;20026;-71
2023/06/28 01:49:30;;;;;;;4.25;1.80;;;18.10;99.90;;;;;;2076865;28;20017;-71
2023/06/28 01:50:31;;;;;;;4.25;1.60;;;18.10;99.90;;;;;;2077387;28;20037;-71
2023/06/28 01:51:33;;;;;;;4.22;1.77;;;18.10;99.90;;;;;;2078448;28;20681;-71
2023/06/28 01:52:34;;;;;;;3.95;1.63;;;18.10;99.90;;;;;;2076085;28;20470;-71
2023/06/28 01:53:35;;;;;;;4.43;1.67;;;18.10;99.90;;;;;;2076870;28;20378;-71
2023/06/28 01:54:36;;;;;;;6.50;1.60;;;18.10;99.90;;;;;;2078704;28;20022;-71
2023/06/28 01:55:36;;;;;;;2.55;1.50;;;18.00;99.90;;;;;;2073096;28;20080;-71
2023/06/28 01:56:37;;;;;;;3.38;1.60;;;18.00;99.90;;;;;;2075458;28;20028;-71
2023/06/28 01:57:37;;;;;;;4.20;1.60;;;18.00;99.90;;;;;;2073567;28;20029;-71
2023/06/28 01:58:38;;;;;;;4.82;1.90;;;18.00;99.90;;;;;;2073749;28;20500;-71
2023/06/28 01:59:39;;;;;;;3.53;1.48;;;18.00;99.90;;;;;;2072913;28;20049;-71
2023/06/28 02:00:39;;;;;;;5.22;2.17;;;18.00;99.90;;;;;;2074483;28;20021;-71
2023/06/28 02:01:43;;;;;;;2.80;1.55;;;18.00;99.90;;;;;;2074446;28;20028;-71
2023/06/28 02:02:44;;;;;;;1.55;1.30;;;18.00;99.90;;;;;;2074740;28;20026;-71
2023/06/28 02:03:44;;;;;;;2.50;1.35;;;18.00;99.90;;;;;;2071466;28;20025;-71
2023/06/28 02:04:46;;;;;;;3.80;1.83;;;17.90;99.90;;;;;;2075912;28;20458;-71
2023/06/28 02:05:47;;;;;;;5.28;2.00;;;17.90;99.90;;;;;;2076360;28;20018;-71
2023/06/28 02:06:47;;;;;;;3.53;1.48;;;17.90;99.90;;;;;;2075781;28;20155;-71
2023/06/28 02:07:48;;;;;;;5.22;1.65;;;17.90;99.90;;;;;;2075468;28;20028;-71
2023/06/28 02:08:48;;;;;;;1.90;1.40;;;17.80;99.90;;;;;;2075093;28;20028;-71
2023/06/28 02:09:49;;;;;;;5.70;2.08;;;17.90;99.90;;;;;;2073574;28;20026;-71
2023/06/28 02:10:49;;;;;;;6.38;2.30;;;17.80;99.90;;;;;;2075001;28;20109;-71
2023/06/28 02:11:50;;;;;;;4.00;1.60;;;17.80;99.90;;;;;;2075873;28;20030;-71
2023/06/28 02:12:51;;;;;;;4.15;1.55;;;17.80;99.90;;;;;;2076672;28;20129;-71
2023/06/28 02:13:51;;;;;;;6.60;1.85;;;17.80;99.90;;;;;;2074318;28;20013;-71
2023/06/28 02:14:52;;;;;;;5.60;2.10;;;17.80;99.90;;;;;;2075014;28;20113;-71
2023/06/28 02:15:53;;;;;;;4.00;1.90;;;17.70;99.90;;;;;;2075839;28;20028;-71
2023/06/28 02:16:54;;;;;;;4.45;1.90;;;17.70;99.90;;;;;;2075337;28;20045;-71
2023/06/28 02:17:56;;;;;;;3.63;1.55;;;17.70;99.90;;;;;;2077202;28;20025;-71
2023/06/28 02:18:57;;;;;;;5.03;2.00;;;17.70;99.90;;;;;;2075912;28;20441;-71
2023/06/28 02:19:58;;;;;;;5.50;2.40;;;17.70;99.90;;;;;;2075212;28;20095;-71
2023/06/28 02:20:59;;;;;;;4.45;1.75;;;17.70;99.90;;;;;;2074957;28;20100;-71
2023/06/28 02:21:59;;;;;;;4.00;1.80;;;17.70;99.90;;;;;;2074792;28;20025;-71
2023/06/28 02:23:00;;;;;;;5.97;2.33;;;17.60;99.90;;;;;;2074609;28;20034;-71
2023/06/28 02:24:00;;;;;;;6.78;2.53;;;17.60;99.90;;;;;;2073228;28;20053;-71
2023/06/28 02:25:01;;;;;;;5.25;2.00;;;17.60;99.90;;;;;;2074222;28;20033;-71
2023/06/28 02:26:01;;;;;;;3.53;1.98;;;17.60;99.90;;;;;;2075039;28;20054;-71
2023/06/28 02:27:02;;;;;;;6.38;2.22;;;17.60;99.90;;;;;;2076643;28;20471;-71
2023/06/28 02:28:03;;;;;;;4.68;2.05;;;17.60;99.90;;;;;;2074831;28;20057;-71
2023/06/28 02:29:03;;;;;;;4.35;1.98;;;17.60;99.90;;;;;;2073479;28;20768;-71
2023/06/28 02:30:05;;;;;;;3.63;1.77;;;17.60;99.90;;;;;;2075470;28;20033;-71
2023/06/28 02:31:05;;;;;;;5.63;2.03;;;17.60;99.90;;;;;;2077158;28;20025;-71
2023/06/28 02:32:06;;;;;;;4.13;1.73;;;17.60;99.90;;;;;;2074757;28;20018;-71
2023/06/28 02:33:06;;;;;;;3.83;1.67;;;17.50;99.90;;;;;;2075962;28;20072;-71
2023/06/28 02:34:07;;;;;;;8.98;2.08;;;17.50;99.90;;;;;;2075456;28;20101;-71
2023/06/28 02:35:07;;;;;;;4.65;1.83;;;17.50;99.90;;;;;;2076421;28;20112;-71
2023/06/28 02:36:08;;;;;;;5.88;1.75;;;17.50;99.90;;;;;;2074224;28;20029;-71
2023/06/28 02:37:08;;;;;;;6.78;2.30;;;17.50;99.90;;;;;;2075603;28;20077;-71
2023/06/28 02:38:09;;;;;;;4.90;2.30;;;17.50;99.90;;;;;;2074924;28;20036;-71
2023/06/28 02:39:09;;;;;;;4.10;2.20;;;17.50;99.90;;;;;;2074573;28;20034;-71
2023/06/28 02:40:12;;;;;;;7.47;2.28;;;17.50;99.90;;;;;;2075679;28;20711;-71
2023/06/28 02:41:13;;;;;;;3.42;1.92;;;17.40;99.90;;;;;;2074860;28;20076;-71
2023/06/28 02:42:13;;;;;;;4.38;2.10;;;17.40;99.90;;;;;;2073462;28;20022;-71
2023/06/28 02:43:14;;;;;;;6.30;2.22;;;17.40;99.90;;;;;;2074711;28;20030;-71
2023/06/28 02:44:15;;;;;;;5.40;1.83;;;17.40;99.90;;;;;;2073840;28;20538;-71
2023/06/28 02:45:15;;;;;;;2.95;1.58;;;17.40;99.90;;;;;;2073648;28;20029;-71
2023/06/28 02:46:16;;;;;;;3.00;1.92;;;17.40;99.90;;;;;;2072729;28;20428;-71
2023/06/28 02:47:16;;;;;;;3.88;1.70;;;17.40;99.90;;;;;;2075545;28;20116;-71
2023/06/28 02:48:17;;;;;;;3.35;1.83;;;17.40;99.90;;;;;;2076808;28;20036;-71
2023/06/28 02:49:18;;;;;;;3.88;1.80;;;17.30;99.90;;;;;;2076041;28;20068;-71
2023/06/28 02:50:18;;;;;;;2.05;1.42;;;17.30;99.90;;;;;;2074913;28;20018;-71
2023/06/28 02:51:19;;;;;;;2.67;1.58;;;17.30;99.90;;;;;;2078342;28;20031;-71
2023/06/28 02:52:19;;;;;;;3.13;1.50;;;17.30;99.90;;;;;;2078282;28;20041;-71
2023/06/28 02:53:20;;;;;;;2.60;1.48;;;17.30;99.90;;;;;;2075227;28;20041;-71
2023/06/28 02:54:20;;;;;;;4.40;2.03;;;17.30;99.90;;;;;;2073607;28;20713;-71
2023/06/28 02:55:21;;;;;;;7.97;2.47;;;17.30;99.90;;;;;;2076035;28;20040;-71
2023/06/28 02:56:23;;;;;;;5.60;2.92;;;17.30;99.90;;;;;;2076339;28;20063;-71
2023/06/28 02:57:24;;;;;;;4.22;1.83;;;17.30;99.90;;;;;;2073956;28;20025;-71
2023/06/28 02:58:24;;;;;;;3.42;1.92;;;17.20;99.90;;;;;;2074828;28;20065;-71
2023/06/28 02:59:25;;;;;;;3.58;1.77;;;17.20;99.90;;;;;;2075147;28;20022;-71
2023/06/28 03:00:25;;;;;;;3.83;2.05;;;17.20;99.90;;;;;;2072178;28;20136;-71
2023/06/28 03:01:26;;;;;;;3.30;1.52;;;17.20;99.90;;;;;;2074212;28;20033;-71
2023/06/28 03:02:26;;;;;;;3.17;1.65;;;17.20;99.90;;;;;;2075428;28;20547;-71
2023/06/28 03:03:33;;;;;;;5.75;2.45;;;17.20;99.90;;;;;;2074728;28;20021;-71
2023/06/28 03:04:39;;;;;;;3.50;1.92;;;17.20;99.90;;;;;;2073041;28;20018;-71
2023/06/28 03:05:39;;;;;;;3.10;1.70;;;17.20;99.90;;;;;;2075589;28;20028;-71
2023/06/28 03:06:41;;;;;;;2.58;1.65;;;17.20;99.90;;;;;;2075957;28;20022;-71
2023/06/28 03:07:42;;;;;;;3.53;1.65;;;17.20;99.90;;;;;;2074196;28;20028;-71
2023/06/28 03:08:42;;;;;;;4.22;1.90;;;17.20;99.90;;;;;;2074687;28;20034;-71
2023/06/28 03:09:43;;;;;;;4.95;1.70;;;17.10;99.90;;;;;;2074845;28;20389;-71
2023/06/28 03:10:44;;;;;;;7.05;2.10;;;17.10;99.90;;;;;;2075351;28;20030;-71
2023/06/28 03:11:44;;;;;;;4.03;1.83;;;17.10;99.90;;;;;;2074167;28;20574;-71
2023/06/28 03:12:45;;;;;;;3.15;1.70;;;17.10;99.90;;;;;;2074450;28;20049;-71
2023/06/28 03:13:45;;;;;;;3.80;1.80;;;17.10;99.90;;;;;;2074798;28;20037;-71
2023/06/28 03:14:46;;;;;;;2.35;1.50;;;17.10;99.90;;;;;;2072611;28;20076;-71
2023/06/28 03:15:46;;;;;;;4.82;2.25;;;17.10;99.90;;;;;;2074776;28;20034;-71
2023/06/28 03:16:47;;;;;;;5.20;2.28;;;17.10;99.90;;;;;;2075583;28;20079;-71
2023/06/28 03:17:47;;;;;;;2.65;1.63;;;17.10;99.90;;;;;;2075076;28;20384;-71
2023/06/28 03:18:48;;;;;;;4.57;2.08;;;17.10;99.90;;;;;;2075390;28;20021;-71
2023/06/28 03:19:49;;;;;;;2.65;1.60;;;17.10;99.90;;;;;;2074494;28;20038;-71
2023/06/28 03:20:49;;;;;;;5.20;1.88;;;17.10;99.90;;;;;;2075463;28;20611;-71
2023/06/28 03:21:50;;;;;;;6.82;1.90;;;17.10;99.90;;;;;;2074673;28;20071;-71
2023/06/28 03:22:50;;;;;;;5.40;2.05;;;17.10;99.90;;;;;;2074894;28;20030;-71
2023/06/28 03:23:51;;;;;;;3.63;1.80;;;17.10;99.90;;;;;;2075531;28;20028;-71
2023/06/28 03:24:51;;;;;;;6.05;2.28;;;17.10;99.90;;;;;;2074641;28;20021;-71
2023/06/28 03:25:52;;;;;;;4.05;2.03;;;17.10;99.90;;;;;;2074334;28;20537;-71
2023/06/28 03:26:53;;;;;;;4.05;1.92;;;17.00;99.90;;;;;;2074045;28;20500;-71
2023/06/28 03:27:53;;;;;;;3.95;2.08;;;17.00;99.90;;;;;;2076223;28;20413;-71
2023/06/28 03:28:57;;;;;;;3.90;1.90;;;17.00;99.90;;;;;;2074914;28;20025;-71
2023/06/28 03:29:58;;;;;;;3.20;1.70;;;17.00;99.90;;;;;;2075068;28;20513;-71
2023/06/28 03:30:58;;;;;;;4.75;1.70;;;17.00;99.90;;;;;;2073937;28;20025;-71
2023/06/28 03:31:59;;;;;;;3.78;1.60;;;17.00;99.90;;;;;;2073351;28;20108;-71
2023/06/28 03:32:59;;;;;;;5.10;1.90;;;17.00;99.90;;;;;;2073712;28;20034;-71
2023/06/28 03:34:00;;;;;;;3.78;1.83;;;17.00;99.90;;;;;;2074363;28;20029;-71
2023/06/28 03:35:00;;;;;;;3.70;1.75;;;17.00;99.90;;;;;;2076083;28;20037;-71
2023/06/28 03:36:01;;;;;;;4.40;1.90;;;17.00;99.90;;;;;;2076371;28;20026;-71
2023/06/28 03:37:02;;;;;;;6.47;2.30;;;17.00;99.90;;;;;;2083870;28;20496;-71
2023/06/28 03:38:03;;;;;;;4.55;1.92;;;17.00;99.90;;;;;;2082560;28;20032;-71
2023/06/28 03:39:03;;;;;;;7.47;2.20;;;17.00;99.90;;;;;;2073828;28;20075;-71
2023/06/28 03:40:05;;;;;;;4.95;2.33;;;17.00;99.90;;;;;;2074094;28;20557;-71
2023/06/28 03:41:07;;;;;;;4.22;1.95;;;17.00;99.90;;;;;;2075402;28;20132;-71
2023/06/28 03:42:07;;;;;;;3.25;1.92;;;17.00;99.90;;;;;;2076268;28;20034;-71
2023/06/28 03:43:08;;;;;;;5.93;2.20;;;17.00;99.90;;;;;;2075406;28;20026;-71
2023/06/28 03:44:08;;;;;;;3.17;1.90;;;17.00;99.90;;;;;;2075764;28;20038;-71
2023/06/28 03:45:09;;;;;;;3.65;2.03;;;17.00;99.90;;;;;;2073548;28;20390;-71
2023/06/28 03:46:10;;;;;;;6.53;1.95;;;17.00;99.90;;;;;;2075938;28;20452;-71
2023/06/28 03:47:10;;;;;;;5.07;2.08;;;17.00;99.90;;;;;;2072097;28;20520;-71
2023/06/28 03:48:11;;;;;;;4.47;1.92;;;17.00;99.90;;;;;;2074445;28;20033;-71
2023/06/28 03:49:11;;;;;;;4.88;1.95;;;17.00;99.90;;;;;;2074792;28;20025;-71
2023/06/28 03:50:12;;;;;;;3.33;1.95;;;17.00;99.90;;;;;;2073190;28;20026;-71
2023/06/28 03:51:13;;;;;;;4.72;2.20;;;17.00;99.90;;;;;;2074618;28;20030;-71
2023/06/28 03:52:13;;;;;;;3.80;2.65;;;17.00;99.90;;;;;;2073801;28;20094;-71
2023/06/28 03:53:14;;;;;;;6.20;2.42;;;17.00;99.90;;;;;;2073286;28;20690;-71
2023/06/28 03:54:14;;;;;;;4.25;1.98;;;17.00;99.90;;;;;;2074745;28;20153;-71
2023/06/28 03:55:16;;;;;;;3.55;1.95;;;17.00;99.90;;;;;;2071940;28;20036;-71
2023/06/28 03:56:16;;;;;;;3.75;1.95;;;17.00;99.90;;;;;;2073606;28;20093;-71
2023/06/28 03:57:17;;;;;;;5.70;1.92;;;17.00;99.90;;;;;;2073743;28;20034;-71
2023/06/28 03:58:17;;;;;;;5.85;2.00;;;17.00;99.90;;;;;;2072802;28;20022;-71
2023/06/28 03:59:18;;;;;;;3.70;1.80;;;17.00;99.90;;;;;;2074043;28;20471;-71
2023/06/28 04:00:19;;;;;;;6.80;2.33;;;17.00;99.90;;;;;;2074751;28;20025;-71
2023/06/28 04:01:19;;;;;;;4.78;2.30;;;17.00;99.90;;;;;;2075115;28;20112;-71
2023/06/28 04:02:20;;;;;;;5.15;2.03;;;17.00;99.90;;;;;;2075330;28;20029;-71
2023/06/28 04:03:20;;;;;;;5.63;2.00;;;17.00;99.90;;;;;;2074175;28;20026;-71
2023/06/28 04:04:21;;;;;;;4.65;2.28;;;17.00;99.90;;;;;;2074330;28;20030;-71
2023/06/28 04:05:22;;;;;;;6.35;2.20;;;17.00;99.90;;;;;;2075945;28;20029;-71
2023/06/28 04:06:22;;;;;;;6.65;2.38;;;17.10;99.90;;;;;;2075488;28;20052;-71
2023/06/28 04:07:24;;;;;;;2.47;1.60;;;17.10;99.90;;;;;;2075399;28;20037;-71
2023/06/28 04:08:26;;;;;;;4.22;2.05;;;17.10;99.90;;;;;;2074933;28;20025;-71
2023/06/28 04:09:27;;;;;;;4.95;2.00;;;17.10;99.90;;;;;;2073895;28;20061;-71
2023/06/28 04:10:28;;;;;;;4.82;1.90;;;17.10;99.90;;;;;;2074322;28;20163;-71
2023/06/28 04:11:28;;;;;;;3.40;1.83;;;17.10;99.90;;;;;;2075472;28;20080;-71
2023/06/28 04:12:29;;;;;;;4.60;2.05;;;17.10;99.90;;;;;;2075559;28;20131;-71
2023/06/28 04:13:30;;;;;;;4.03;2.63;;;17.20;99.90;;;;;;2076985;28;20029;-71
2023/06/28 04:14:30;;;;;;;5.40;2.15;;;17.20;99.90;;;;;;2075389;28;20053;-71
2023/06/28 04:15:31;;;;;;;4.05;2.03;;;17.20;99.90;;;;;;2077198;28;20040;-71
2023/06/28 04:16:31;;;;;;;3.80;1.98;;;17.20;99.90;;;;;;2074932;28;20027;-71
2023/06/28 04:17:32;;;;;;;3.35;1.92;;;17.20;99.90;;;;;;2077492;28;20096;-71
2023/06/28 04:18:32;;;;;;;5.82;2.70;;;17.20;99.90;;;;;;2079136;28;20124;-71
2023/06/28 04:19:33;;;;;;;4.22;1.80;;;17.30;99.90;;;;;;2079664;28;20593;-71
2023/06/28 04:20:33;;;;;;;3.70;2.28;;;17.30;99.90;;;;;;2077524;28;20405;-71
2023/06/28 04:21:34;;;;;;;6.32;2.25;;;17.30;99.90;;;;;;2079364;28;20100;-71
2023/06/28 04:22:34;;;;;;;3.83;1.80;;;17.30;99.90;;;;;;2077688;28;20029;-71
2023/06/28 04:23:37;;;;;;;3.75;2.10;;;17.30;99.90;;;;;;2074266;28;20049;-71
2023/06/28 04:24:38;;;;;;;5.97;2.40;;;17.40;99.90;;;;;;2075387;28;20508;-71
2023/06/28 04:25:38;;;;;;;3.75;2.20;;;17.40;99.90;;;;;;2074906;28;20373;-71
2023/06/28 04:26:39;;;;;;;3.00;2.00;;;17.40;99.90;;;;;;2076510;28;20025;-71
2023/06/28 04:27:39;;;;;;;4.40;2.35;;;17.40;99.90;;;;;;2077664;28;20048;-71
2023/06/28 04:28:40;;;;;;;5.00;2.28;;;17.40;99.90;;;;;;2075484;28;20034;-71
2023/06/28 04:29:40;;;;;;;4.22;1.85;;;17.40;99.90;;;;;;2076416;28;20104;-71
2023/06/28 04:30:41;;;;;;;6.13;2.20;;;17.50;99.90;;;;;;2074191;28;20121;-71
2023/06/28 04:31:41;;;;;;;4.15;2.42;;;17.50;99.90;;;;;;2075031;28;20030;-71
2023/06/28 04:32:44;;;;;;;5.68;2.30;;;17.50;99.90;;;;;;2077917;28;20033;-71
2023/06/28 04:33:46;;;;;;;5.18;2.55;;;17.50;99.90;;;;;;2075972;28;20022;-71
2023/06/28 04:34:47;;;;;;;5.60;2.53;;;17.50;99.90;;;;;;2077072;28;20021;-71
2023/06/28 04:35:56;;;;;;;4.05;2.30;;;17.60;99.90;;;;;;2075064;28;20038;-71
2023/06/28 04:36:58;;;;;;;6.75;2.40;;;17.60;99.90;;;;;;2076500;28;20042;-71
2023/06/28 04:37:58;;;;;;;4.78;2.30;;;17.60;99.90;;;;;;2076302;28;20032;-71
2023/06/28 04:38:59;;;;;;;5.03;2.25;;;17.60;99.90;;;;;;2074305;28;20112;-71
2023/06/28 04:40:02;;;;;;;4.82;2.25;;;17.60;99.90;;;;;;2073923;28;20053;-71
2023/06/28 04:41:03;;;;;;;5.05;2.17;;;17.60;99.90;;;;;;2074044;28;20028;-71
2023/06/28 04:42:04;;;;;;;5.28;2.70;;;17.70;99.90;;;;;;2075068;28;20033;-71
2023/06/28 04:43:10;;;;;;;5.82;2.20;;;17.70;99.90;;;;;;2074417;28;20091;-71
2023/06/28 04:44:10;;;;;;;7.55;3.08;;;17.70;99.90;;;;;;2074966;28;20663;-71
2023/06/28 04:45:11;;;;;;;5.13;2.65;;;17.70;99.90;;;;;;2075586;28;20064;-71
2023/06/28 04:46:12;;;;;;;3.47;2.15;;;17.70;99.90;;;;;;2075974;28;20028;-71
2023/06/28 04:47:15;;;;;;;4.72;2.58;;;17.80;99.90;;;;;;2076429;28;20769;-71
2023/06/28 04:48:16;;;;;;;5.28;2.30;;;17.80;99.90;;;;;;2076093;28;20021;-71
2023/06/28 04:49:16;;;;;;;8.73;2.85;;;17.80;99.90;;;;;;2075378;28;20018;-71
2023/06/28 04:50:17;;;;;;;4.78;2.55;;;17.80;99.90;;;;;;2076106;28;20051;-71
2023/06/28 04:51:18;;;;;;;2.97;2.13;;;17.80;99.90;;;;;;2075103;28;20025;-71
2023/06/28 04:52:19;;;;;;;6.10;2.80;;;17.80;99.90;;;;;;2076017;28;20036;-71
2023/06/28 04:53:20;;;;;;;8.15;2.60;;;17.90;99.90;;;;;;2075625;28;20022;-71
2023/06/28 04:54:20;;;;;;;7.50;2.75;;;17.90;99.90;;;;;;2075623;28;20033;-71
2023/06/28 04:55:21;;;;;;;6.55;2.38;;;17.90;99.90;;;;;;2075707;28;20095;-71
2023/06/28 04:56:21;;;;;;;5.00;2.60;;;18.00;99.90;;;;;;2076866;28;20022;-71
2023/06/28 04:57:22;;;;;;;4.90;2.38;;;18.00;99.90;;;;;;2075865;28;20030;-71
2023/06/28 04:58:25;;;;;;;5.40;2.85;;;18.00;99.90;;;;;;2076802;28;20060;-71
2023/06/28 04:59:25;;;;;;;5.47;3.05;;;18.10;99.90;;;;;;2075817;28;20024;-71
2023/06/28 05:00:26;;;;;;;6.05;3.20;;;18.10;99.90;;;;;;2074140;28;20064;-71
2023/06/28 05:01:26;;;;;;;6.35;2.70;;;18.10;99.90;;;;;;2074948;28;20026;-71
2023/06/28 05:02:27;;;;;;;4.25;2.47;;;18.10;99.90;;;;;;2075226;28;20024;-71
2023/06/28 05:03:28;;;;;;;6.57;2.88;;;18.20;99.90;;;;;;2076180;28;20029;-71
2023/06/28 05:04:32;;;;;;;4.22;2.60;;;18.20;99.90;;;;;;2076229;28;20496;-71
2023/06/28 05:05:32;;;;;;;5.63;3.13;;;18.20;99.90;;;;;;2075821;28;20022;-71
2023/06/28 05:06:35;;;;;;;3.83;2.90;;;18.30;99.90;;;;;;2075321;28;20029;-71
2023/06/28 05:07:35;;;;;;;6.43;3.00;;;18.30;99.90;;;;;;2075641;28;20358;-71
2023/06/28 05:08:36;;;;;;;3.03;1.85;;;18.30;99.90;;;;;;2074082;28;20052;-71
2023/06/28 05:09:38;;;;;;;6.15;2.90;;;18.30;99.90;;;;;;2074284;28;20022;-71
2023/06/28 05:10:39;;;;;;;4.63;2.47;;;18.40;99.90;;;;;;2076062;28;20025;-71
2023/06/28 05:11:39;;;;;;;5.28;2.85;;;18.40;99.90;;;;;;2074213;28;20040;-71
2023/06/28 05:12:40;;;;;;;9.60;2.90;;;18.40;99.90;;;;;;2076590;28;20039;-71
2023/06/28 05:13:41;;;;;;;4.20;2.90;;;18.50;99.90;;;;;;2075316;28;20033;-71
2023/06/28 05:14:41;;;;;;;8.55;2.53;;;18.50;99.90;;;;;;2075258;28;20063;-71
2023/06/28 05:15:42;;;;;;;7.65;3.00;;;18.60;99.90;;;;;;2075521;28;20026;-71
2023/06/28 05:16:43;;;;;;;5.15;2.75;;;18.60;99.90;;;;;;2075640;28;20060;-71
2023/06/28 05:17:43;;;;;;;6.05;2.80;;;18.70;99.90;;;;;;2077137;28;20034;-71